sensor_id;sensor_type;location;lat;lon;timestamp;temperature;humidity
28546;DHT22;15749;49.606;8.738;2022-08-19T00:01:44;24.90;99.90
28546;DHT22;15749;49.606;8.738;2022-08-19T00:04:38;24.90;99.90
28546;DHT22;15749;49.606;8.738;2022-08-19T00:07:28;24.90;99.90
28546;DHT22;15749;49.606;8.738;2022-08-19T00:10:17;24.90;99.90
28546;DHT22;15749;49.606;8.738;2022-08-19T00:13:06;24.90;99.90
28546;DHT22;15749;49.606;8.738;2022-08-19T00:15:55;24.90;99.90
28546;DHT22;15749;49.606;8.738;2022-08-19T00:18:44;24.90;99.90
28546;DHT22;15749;49.606;8.738;2022-08-19T00:21:33;24.90;99.90
28546;DHT22;15749;49.606;8.738;2022-08-19T00:24:24;24.90;99.90
28546;DHT22;15749;49.606;8.738;2022-08-19T00:27:13;24.90;99.90
28546;DHT22;15749;49.606;8.738;2022-08-19T00:30:12;24.90;99.90
28546;DHT22;15749;49.606;8.738;2022-08-19T00:33:00;24.90;99.90
28546;DHT22;15749;49.606;8.738;2022-08-19T00:35:49;24.90;99.90
28546;DHT22;15749;49.606;8.738;2022-08-19T00:38:41;24.90;99.90
28546;DHT22;15749;49.606;8.738;2022-08-19T00:41:31;24.90;99.90
28546;DHT22;15749;49.606;8.738;2022-08-19T00:44:21;24.90;99.90
28546;DHT22;15749;49.606;8.738;2022-08-19T00:47:12;24.80;99.90
28546;DHT22;15749;49.606;8.738;2022-08-19T00:50:01;24.80;99.90
28546;DHT22;15749;49.606;8.738;2022-08-19T00:52:50;24.80;99.90
28546;DHT22;15749;49.606;8.738;2022-08-19T00:55:39;24.80;99.90
28546;DHT22;15749;49.606;8.738;2022-08-19T00:58:31;24.80;99.90
28546;DHT22;15749;49.606;8.738;2022-08-19T01:01:20;24.80;99.90
28546;DHT22;15749;49.606;8.738;2022-08-19T01:04:08;24.80;99.90
28546;DHT22;15749;49.606;8.738;2022-08-19T01:06:56;24.80;99.90
28546;DHT22;15749;49.606;8.738;2022-08-19T01:09:45;24.80;99.90
28546;DHT22;15749;49.606;8.738;2022-08-19T01:12:34;24.80;99.90
28546;DHT22;15749;49.606;8.738;2022-08-19T01:15:27;24.80;99.90
28546;DHT22;15749;49.606;8.738;2022-08-19T01:18:19;24.80;99.90
28546;DHT22;15749;49.606;8.738;2022-08-19T01:21:14;24.80;99.90
28546;DHT22;15749;49.606;8.738;2022-08-19T01:24:06;24.80;99.90
28546;DHT22;15749;49.606;8.738;2022-08-19T01:26:54;24.80;99.90
28546;DHT22;15749;49.606;8.738;2022-08-19T01:29:42;24.80;99.90
28546;DHT22;15749;49.606;8.738;2022-08-19T01:32:32;24.80;99.90
28546;DHT22;15749;49.606;8.738;2022-08-19T01:35:21;24.80;99.90
28546;DHT22;15749;49.606;8.738;2022-08-19T01:38:20;24.80;99.90
28546;DHT22;15749;49.606;8.738;2022-08-19T01:41:12;24.80;99.90
28546;DHT22;15749;49.606;8.738;2022-08-19T01:44:00;24.80;99.90
28546;DHT22;15749;49.606;8.738;2022-08-19T01:47:26;24.80;99.90
28546;DHT22;15749;49.606;8.738;2022-08-19T01:50:14;24.80;99.90
28546;DHT22;15749;49.606;8.738;2022-08-19T01:53:04;24.80;99.90
28546;DHT22;15749;49.606;8.738;2022-08-19T01:55:53;24.80;99.90
28546;DHT22;15749;49.606;8.738;2022-08-19T01:58:45;24.80;99.90
28546;DHT22;15749;49.606;8.738;2022-08-19T02:01:35;24.80;99.90
28546;DHT22;15749;49.606;8.738;2022-08-19T02:04:22;24.80;99.90
28546;DHT22;15749;49.606;8.738;2022-08-19T02:07:11;24.80;99.90
28546;DHT22;15749;49.606;8.738;2022-08-19T02:10:01;24.80;99.90
28546;DHT22;15749;49.606;8.738;2022-08-19T02:12:57;24.80;99.90
28546;DHT22;15749;49.606;8.738;2022-08-19T02:15:46;24.80;99.90
28546;DHT22;15749;49.606;8.738;2022-08-19T02:18:34;24.80;99.90
28546;DHT22;15749;49.606;8.738;2022-08-19T02:21:23;24.70;99.90
28546;DHT22;15749;49.606;8.738;2022-08-19T02:24:10;24.70;99.90
28546;DHT22;15749;49.606;8.738;2022-08-19T02:26:58;24.70;99.90
28546;DHT22;15749;49.606;8.738;2022-08-19T02:29:47;24.70;99.90
28546;DHT22;15749;49.606;8.738;2022-08-19T02:32:36;24.80;99.90
28546;DHT22;15749;49.606;8.738;2022-08-19T02:35:29;24.70;99.90
28546;DHT22;15749;49.606;8.738;2022-08-19T02:38:17;24.80;99.90
28546;DHT22;15749;49.606;8.738;2022-08-19T02:41:16;24.70;99.90
28546;DHT22;15749;49.606;8.738;2022-08-19T02:44:06;24.80;99.90
28546;DHT22;15749;49.606;8.738;2022-08-19T02:47:14;24.80;99.90
28546;DHT22;15749;49.606;8.738;2022-08-19T02:50:04;24.80;99.90
28546;DHT22;15749;49.606;8.738;2022-08-19T02:52:53;24.80;99.90
28546;DHT22;15749;49.606;8.738;2022-08-19T02:55:44;24.80;99.90
28546;DHT22;15749;49.606;8.738;2022-08-19T02:58:32;24.80;99.90
28546;DHT22;15749;49.606;8.738;2022-08-19T03:01:22;24.80;99.90
28546;DHT22;15749;49.606;8.738;2022-08-19T03:04:12;24.80;99.90
28546;DHT22;15749;49.606;8.738;2022-08-19T03:07:03;24.80;99.90
28546;DHT22;15749;49.606;8.738;2022-08-19T03:09:56;24.80;99.90
28546;DHT22;15749;49.606;8.738;2022-08-19T03:12:44;24.80;99.90
28546;DHT22;15749;49.606;8.738;2022-08-19T03:15:32;24.80;99.90
28546;DHT22;15749;49.606;8.738;2022-08-19T03:18:19;24.80;99.90
28546;DHT22;15749;49.606;8.738;2022-08-19T03:21:08;24.80;99.90
28546;DHT22;15749;49.606;8.738;2022-08-19T03:24:00;24.80;99.90
28546;DHT22;15749;49.606;8.738;2022-08-19T03:26:54;24.80;99.90
28546;DHT22;15749;49.606;8.738;2022-08-19T03:29:43;24.80;99.90
28546;DHT22;15749;49.606;8.738;2022-08-19T03:32:31;24.80;99.90
28546;DHT22;15749;49.606;8.738;2022-08-19T03:35:19;24.80;99.90
28546;DHT22;15749;49.606;8.738;2022-08-19T03:38:07;24.80;99.90
28546;DHT22;15749;49.606;8.738;2022-08-19T03:40:55;24.80;99.90
28546;DHT22;15749;49.606;8.738;2022-08-19T03:43:44;24.80;99.90
28546;DHT22;15749;49.606;8.738;2022-08-19T03:46:32;24.80;99.90
28546;DHT22;15749;49.606;8.738;2022-08-19T03:49:20;24.80;99.90
28546;DHT22;15749;49.606;8.738;2022-08-19T03:52:13;24.80;99.90
28546;DHT22;15749;49.606;8.738;2022-08-19T03:55:01;24.80;99.90
28546;DHT22;15749;49.606;8.738;2022-08-19T03:57:50;24.80;99.90
28546;DHT22;15749;49.606;8.738;2022-08-19T04:00:44;24.80;99.90
28546;DHT22;15749;49.606;8.738;2022-08-19T04:03:31;24.70;99.90
28546;DHT22;15749;49.606;8.738;2022-08-19T04:06:21;24.70;99.90
28546;DHT22;15749;49.606;8.738;2022-08-19T04:09:11;24.70;99.90
28546;DHT22;15749;49.606;8.738;2022-08-19T04:11:58;24.70;99.90
28546;DHT22;15749;49.606;8.738;2022-08-19T04:14:47;24.70;99.90
28546;DHT22;15749;49.606;8.738;2022-08-19T04:17:35;24.70;99.90
28546;DHT22;15749;49.606;8.738;2022-08-19T04:20:22;24.70;99.90
28546;DHT22;15749;49.606;8.738;2022-08-19T04:23:10;24.70;99.90
28546;DHT22;15749;49.606;8.738;2022-08-19T04:25:58;24.70;99.90
28546;DHT22;15749;49.606;8.738;2022-08-19T04:28:49;24.70;99.90
28546;DHT22;15749;49.606;8.738;2022-08-19T04:31:39;24.70;99.90
28546;DHT22;15749;49.606;8.738;2022-08-19T04:34:28;24.70;99.90
28546;DHT22;15749;49.606;8.738;2022-08-19T04:37:16;24.70;99.90
28546;DHT22;15749;49.606;8.738;2022-08-19T04:40:05;24.70;99.90
28546;DHT22;15749;49.606;8.738;2022-08-19T04:43:11;24.70;99.90
28546;DHT22;15749;49.606;8.738;2022-08-19T04:46:04;24.70;99.90
28546;DHT22;15749;49.606;8.738;2022-08-19T04:48:54;24.70;99.90
28546;DHT22;15749;49.606;8.738;2022-08-19T04:51:44;24.70;99.90
28546;DHT22;15749;49.606;8.738;2022-08-19T04:54:32;24.70;99.90
28546;DHT22;15749;49.606;8.738;2022-08-19T04:57:23;24.70;99.90
28546;DHT22;15749;49.606;8.738;2022-08-19T05:00:12;24.70;99.90
28546;DHT22;15749;49.606;8.738;2022-08-19T05:03:00;24.70;99.90
28546;DHT22;15749;49.606;8.738;2022-08-19T05:05:53;24.70;99.90
28546;DHT22;15749;49.606;8.738;2022-08-19T05:08:42;24.70;99.90
28546;DHT22;15749;49.606;8.738;2022-08-19T05:11:33;24.70;99.90
28546;DHT22;15749;49.606;8.738;2022-08-19T05:14:24;24.70;99.90
28546;DHT22;15749;49.606;8.738;2022-08-19T05:17:12;24.70;99.90
28546;DHT22;15749;49.606;8.738;2022-08-19T05:20:19;24.70;99.90
28546;DHT22;15749;49.606;8.738;2022-08-19T05:23:26;24.70;99.90
28546;DHT22;15749;49.606;8.738;2022-08-19T05:26:13;24.70;99.90
28546;DHT22;15749;49.606;8.738;2022-08-19T05:29:02;24.70;99.90
28546;DHT22;15749;49.606;8.738;2022-08-19T05:31:51;24.70;99.90
28546;DHT22;15749;49.606;8.738;2022-08-19T05:34:39;24.70;99.90
28546;DHT22;15749;49.606;8.738;2022-08-19T05:37:26;24.70;99.90
28546;DHT22;15749;49.606;8.738;2022-08-19T05:40:15;24.70;99.90
28546;DHT22;15749;49.606;8.738;2022-08-19T05:43:03;24.70;99.90
28546;DHT22;15749;49.606;8.738;2022-08-19T05:45:51;24.70;99.90
28546;DHT22;15749;49.606;8.738;2022-08-19T05:48:38;24.70;99.90
28546;DHT22;15749;49.606;8.738;2022-08-19T05:51:26;24.70;99.90
28546;DHT22;15749;49.606;8.738;2022-08-19T05:54:14;24.70;99.90
28546;DHT22;15749;49.606;8.738;2022-08-19T05:57:04;24.70;99.90
28546;DHT22;15749;49.606;8.738;2022-08-19T05:59:51;24.70;99.90
28546;DHT22;15749;49.606;8.738;2022-08-19T06:02:43;24.70;99.90
28546;DHT22;15749;49.606;8.738;2022-08-19T06:05:31;24.70;99.90
28546;DHT22;15749;49.606;8.738;2022-08-19T06:08:36;24.70;99.90
28546;DHT22;15749;49.606;8.738;2022-08-19T06:11:32;24.70;99.90
28546;DHT22;15749;49.606;8.738;2022-08-19T06:14:24;24.80;99.90
28546;DHT22;15749;49.606;8.738;2022-08-19T06:17:18;24.80;99.90
28546;DHT22;15749;49.606;8.738;2022-08-19T06:20:07;24.80;99.90
28546;DHT22;15749;49.606;8.738;2022-08-19T06:22:59;24.80;99.90
28546;DHT22;15749;49.606;8.738;2022-08-19T06:25:46;24.80;99.90
28546;DHT22;15749;49.606;8.738;2022-08-19T06:28:34;24.80;99.90
28546;DHT22;15749;49.606;8.738;2022-08-19T06:31:26;24.80;99.90
28546;DHT22;15749;49.606;8.738;2022-08-19T06:34:14;24.90;99.90
28546;DHT22;15749;49.606;8.738;2022-08-19T06:37:02;24.90;99.90
28546;DHT22;15749;49.606;8.738;2022-08-19T06:39:51;24.90;99.90
28546;DHT22;15749;49.606;8.738;2022-08-19T06:42:39;24.90;99.90
28546;DHT22;15749;49.606;8.738;2022-08-19T06:45:39;24.90;99.90
28546;DHT22;15749;49.606;8.738;2022-08-19T06:48:27;24.90;99.90
28546;DHT22;15749;49.606;8.738;2022-08-19T06:51:16;24.90;99.90
28546;DHT22;15749;49.606;8.738;2022-08-19T06:54:06;24.90;99.90
28546;DHT22;15749;49.606;8.738;2022-08-19T06:57:05;24.90;99.90
28546;DHT22;15749;49.606;8.738;2022-08-19T06:59:54;25.00;99.90
28546;DHT22;15749;49.606;8.738;2022-08-19T07:02:42;25.00;99.90
28546;DHT22;15749;49.606;8.738;2022-08-19T07:05:40;25.00;99.90
28546;DHT22;15749;49.606;8.738;2022-08-19T07:08:32;25.00;99.90
28546;DHT22;15749;49.606;8.738;2022-08-19T07:11:26;25.00;99.90
28546;DHT22;15749;49.606;8.738;2022-08-19T07:14:15;25.10;99.90
28546;DHT22;15749;49.606;8.738;2022-08-19T07:17:07;25.10;99.90
28546;DHT22;15749;49.606;8.738;2022-08-19T07:19:56;25.10;99.90
28546;DHT22;15749;49.606;8.738;2022-08-19T07:22:53;25.10;99.90
28546;DHT22;15749;49.606;8.738;2022-08-19T07:25:40;25.20;99.90
28546;DHT22;15749;49.606;8.738;2022-08-19T07:28:29;25.20;99.90
28546;DHT22;15749;49.606;8.738;2022-08-19T07:31:18;25.30;99.90
28546;DHT22;15749;49.606;8.738;2022-08-19T07:34:12;25.30;99.90
28546;DHT22;15749;49.606;8.738;2022-08-19T07:37:01;25.30;99.90
28546;DHT22;15749;49.606;8.738;2022-08-19T07:39:50;25.40;99.90
28546;DHT22;15749;49.606;8.738;2022-08-19T07:42:38;25.40;99.90
28546;DHT22;15749;49.606;8.738;2022-08-19T07:45:26;25.50;99.90
28546;DHT22;15749;49.606;8.738;2022-08-19T07:48:14;25.50;99.90
28546;DHT22;15749;49.606;8.738;2022-08-19T07:51:04;25.50;99.90
28546;DHT22;15749;49.606;8.738;2022-08-19T07:53:53;25.50;99.90
28546;DHT22;15749;49.606;8.738;2022-08-19T07:56:42;25.60;99.90
28546;DHT22;15749;49.606;8.738;2022-08-19T07:59:30;25.60;99.90
28546;DHT22;15749;49.606;8.738;2022-08-19T08:02:18;25.60;99.90
28546;DHT22;15749;49.606;8.738;2022-08-19T08:05:06;25.70;99.90
28546;DHT22;15749;49.606;8.738;2022-08-19T08:08:11;25.70;99.90
28546;DHT22;15749;49.606;8.738;2022-08-19T08:11:29;25.80;99.90
28546;DHT22;15749;49.606;8.738;2022-08-19T08:14:21;25.80;99.90
28546;DHT22;15749;49.606;8.738;2022-08-19T08:17:22;25.90;99.90
28546;DHT22;15749;49.606;8.738;2022-08-19T08:20:31;25.90;99.90
28546;DHT22;15749;49.606;8.738;2022-08-19T08:23:20;26.00;99.90
28546;DHT22;15749;49.606;8.738;2022-08-19T08:26:12;26.00;99.90
28546;DHT22;15749;49.606;8.738;2022-08-19T08:29:01;26.10;99.90
28546;DHT22;15749;49.606;8.738;2022-08-19T08:31:59;26.20;99.90
28546;DHT22;15749;49.606;8.738;2022-08-19T08:34:47;26.20;99.90
28546;DHT22;15749;49.606;8.738;2022-08-19T08:37:37;26.30;99.90
28546;DHT22;15749;49.606;8.738;2022-08-19T08:40:29;26.40;99.90
28546;DHT22;15749;49.606;8.738;2022-08-19T08:43:22;26.50;99.90
28546;DHT22;15749;49.606;8.738;2022-08-19T08:46:20;26.60;99.90
28546;DHT22;15749;49.606;8.738;2022-08-19T08:49:26;26.70;99.90
28546;DHT22;15749;49.606;8.738;2022-08-19T08:52:21;26.80;99.90
28546;DHT22;15749;49.606;8.738;2022-08-19T08:55:19;26.90;99.90
28546;DHT22;15749;49.606;8.738;2022-08-19T08:58:13;26.90;99.90
28546;DHT22;15749;49.606;8.738;2022-08-19T09:01:03;27.00;99.90
28546;DHT22;15749;49.606;8.738;2022-08-19T09:03:50;27.10;99.90
28546;DHT22;15749;49.606;8.738;2022-08-19T09:06:48;27.20;99.90
28546;DHT22;15749;49.606;8.738;2022-08-19T09:09:42;27.30;99.40
28546;DHT22;15749;49.606;8.738;2022-08-19T09:12:41;27.40;99.50
28546;DHT22;15749;49.606;8.738;2022-08-19T09:15:36;27.50;99.80
28546;DHT22;15749;49.606;8.738;2022-08-19T09:18:26;27.60;99.20
28546;DHT22;15749;49.606;8.738;2022-08-19T09:21:28;27.60;99.90
28546;DHT22;15749;49.606;8.738;2022-08-19T09:24:20;27.70;99.70
28546;DHT22;15749;49.606;8.738;2022-08-19T09:27:16;27.70;98.00
28546;DHT22;15749;49.606;8.738;2022-08-19T09:30:05;27.80;98.80
28546;DHT22;15749;49.606;8.738;2022-08-19T09:32:54;27.80;98.10
28546;DHT22;15749;49.606;8.738;2022-08-19T09:35:42;27.90;98.30
28546;DHT22;15749;49.606;8.738;2022-08-19T09:38:39;27.90;98.40
28546;DHT22;15749;49.606;8.738;2022-08-19T09:41:30;27.90;98.20
28546;DHT22;15749;49.606;8.738;2022-08-19T09:44:19;28.00;97.20
28546;DHT22;15749;49.606;8.738;2022-08-19T09:47:07;28.00;97.20
28546;DHT22;15749;49.606;8.738;2022-08-19T09:49:55;28.10;97.00
28546;DHT22;15749;49.606;8.738;2022-08-19T09:52:43;28.10;97.10
28546;DHT22;15749;49.606;8.738;2022-08-19T09:55:42;28.20;96.50
28546;DHT22;15749;49.606;8.738;2022-08-19T09:58:31;28.20;95.90
28546;DHT22;15749;49.606;8.738;2022-08-19T10:01:21;28.30;95.60
28546;DHT22;15749;49.606;8.738;2022-08-19T10:04:11;28.30;94.80
28546;DHT22;15749;49.606;8.738;2022-08-19T10:07:05;28.30;95.40
28546;DHT22;15749;49.606;8.738;2022-08-19T10:09:53;28.30;95.10
28546;DHT22;15749;49.606;8.738;2022-08-19T10:12:40;28.30;95.20
28546;DHT22;15749;49.606;8.738;2022-08-19T10:15:36;28.30;94.50
28546;DHT22;15749;49.606;8.738;2022-08-19T10:18:33;28.30;93.80
28546;DHT22;15749;49.606;8.738;2022-08-19T10:21:23;28.40;94.20
28546;DHT22;15749;49.606;8.738;2022-08-19T10:24:11;28.40;93.80
28546;DHT22;15749;49.606;8.738;2022-08-19T10:26:59;28.40;94.80
28546;DHT22;15749;49.606;8.738;2022-08-19T10:29:49;28.40;94.00
28546;DHT22;15749;49.606;8.738;2022-08-19T10:32:38;28.40;94.40
28546;DHT22;15749;49.606;8.738;2022-08-19T10:35:31;28.40;92.80
28546;DHT22;15749;49.606;8.738;2022-08-19T10:38:38;28.50;92.40
28546;DHT22;15749;49.606;8.738;2022-08-19T10:41:39;28.50;93.10
28546;DHT22;15749;49.606;8.738;2022-08-19T10:44:29;28.60;93.00
28546;DHT22;15749;49.606;8.738;2022-08-19T10:47:17;28.60;93.00
28546;DHT22;15749;49.606;8.738;2022-08-19T10:50:12;28.60;92.90
28546;DHT22;15749;49.606;8.738;2022-08-19T10:53:17;28.70;92.30
28546;DHT22;15749;49.606;8.738;2022-08-19T10:56:07;28.70;92.90
28546;DHT22;15749;49.606;8.738;2022-08-19T10:59:13;28.70;92.10
28546;DHT22;15749;49.606;8.738;2022-08-19T11:02:02;28.80;92.30
28546;DHT22;15749;49.606;8.738;2022-08-19T11:04:52;28.80;92.50
28546;DHT22;15749;49.606;8.738;2022-08-19T11:07:42;28.80;93.00
28546;DHT22;15749;49.606;8.738;2022-08-19T11:10:30;28.90;91.10
28546;DHT22;15749;49.606;8.738;2022-08-19T11:13:18;28.90;92.00
28546;DHT22;15749;49.606;8.738;2022-08-19T11:16:07;29.00;92.10
28546;DHT22;15749;49.606;8.738;2022-08-19T11:18:58;29.00;90.90
28546;DHT22;15749;49.606;8.738;2022-08-19T11:21:48;29.00;91.90
28546;DHT22;15749;49.606;8.738;2022-08-19T11:24:37;29.00;91.00
28546;DHT22;15749;49.606;8.738;2022-08-19T11:27:24;29.10;91.10
28546;DHT22;15749;49.606;8.738;2022-08-19T11:30:13;29.10;91.60
28546;DHT22;15749;49.606;8.738;2022-08-19T11:33:02;29.10;90.80
28546;DHT22;15749;49.606;8.738;2022-08-19T11:35:49;29.20;90.70
28546;DHT22;15749;49.606;8.738;2022-08-19T11:38:37;29.20;90.80
28546;DHT22;15749;49.606;8.738;2022-08-19T11:41:26;29.20;91.20
28546;DHT22;15749;49.606;8.738;2022-08-19T11:44:14;29.30;89.70
28546;DHT22;15749;49.606;8.738;2022-08-19T11:47:02;29.30;90.80
28546;DHT22;15749;49.606;8.738;2022-08-19T11:49:54;29.30;90.20
28546;DHT22;15749;49.606;8.738;2022-08-19T11:52:42;29.30;90.20
28546;DHT22;15749;49.606;8.738;2022-08-19T11:55:30;29.40;89.40
28546;DHT22;15749;49.606;8.738;2022-08-19T11:58:20;29.40;89.00
28546;DHT22;15749;49.606;8.738;2022-08-19T12:01:08;29.40;87.20
28546;DHT22;15749;49.606;8.738;2022-08-19T12:03:57;29.40;88.40
28546;DHT22;15749;49.606;8.738;2022-08-19T12:06:45;29.40;89.20
28546;DHT22;15749;49.606;8.738;2022-08-19T12:09:33;29.40;88.80
28546;DHT22;15749;49.606;8.738;2022-08-19T12:12:27;29.40;87.60
28546;DHT22;15749;49.606;8.738;2022-08-19T12:15:16;29.40;87.30
28546;DHT22;15749;49.606;8.738;2022-08-19T12:18:04;29.40;87.50
28546;DHT22;15749;49.606;8.738;2022-08-19T12:20:52;29.50;87.80
28546;DHT22;15749;49.606;8.738;2022-08-19T12:23:42;29.50;87.20
28546;DHT22;15749;49.606;8.738;2022-08-19T12:26:31;29.50;85.40
28546;DHT22;15749;49.606;8.738;2022-08-19T12:29:21;29.50;85.60
28546;DHT22;15749;49.606;8.738;2022-08-19T12:32:16;29.50;85.00
28546;DHT22;15749;49.606;8.738;2022-08-19T12:35:05;29.50;83.70
28546;DHT22;15749;49.606;8.738;2022-08-19T12:37:54;29.50;86.40
28546;DHT22;15749;49.606;8.738;2022-08-19T12:40:45;29.50;86.50
28546;DHT22;15749;49.606;8.738;2022-08-19T12:43:34;29.60;84.00
28546;DHT22;15749;49.606;8.738;2022-08-19T12:46:21;29.60;84.90
28546;DHT22;15749;49.606;8.738;2022-08-19T12:49:12;29.60;85.00
28546;DHT22;15749;49.606;8.738;2022-08-19T12:52:23;29.60;83.60
28546;DHT22;15749;49.606;8.738;2022-08-19T12:55:11;29.60;83.40
28546;DHT22;15749;49.606;8.738;2022-08-19T12:57:59;29.70;84.60
28546;DHT22;15749;49.606;8.738;2022-08-19T13:00:47;29.70;82.30
28546;DHT22;15749;49.606;8.738;2022-08-19T13:03:35;29.70;82.70
28546;DHT22;15749;49.606;8.738;2022-08-19T13:06:27;29.70;82.30
28546;DHT22;15749;49.606;8.738;2022-08-19T13:09:14;29.80;80.40
28546;DHT22;15749;49.606;8.738;2022-08-19T13:12:02;29.80;81.90
28546;DHT22;15749;49.606;8.738;2022-08-19T13:14:55;29.80;81.30
28546;DHT22;15749;49.606;8.738;2022-08-19T13:17:43;29.80;80.30
28546;DHT22;15749;49.606;8.738;2022-08-19T13:20:31;29.90;81.10
28546;DHT22;15749;49.606;8.738;2022-08-19T13:23:19;29.90;81.10
28546;DHT22;15749;49.606;8.738;2022-08-19T13:26:08;29.90;81.50
28546;DHT22;15749;49.606;8.738;2022-08-19T13:28:57;30.00;81.50
28546;DHT22;15749;49.606;8.738;2022-08-19T13:32:02;30.00;80.30
28546;DHT22;15749;49.606;8.738;2022-08-19T13:35:08;30.00;81.40
28546;DHT22;15749;49.606;8.738;2022-08-19T13:38:01;30.10;80.80
28546;DHT22;15749;49.606;8.738;2022-08-19T13:41:04;30.10;80.30
28546;DHT22;15749;49.606;8.738;2022-08-19T13:43:56;30.10;77.60
28546;DHT22;15749;49.606;8.738;2022-08-19T13:46:44;30.10;78.30
28546;DHT22;15749;49.606;8.738;2022-08-19T13:49:33;30.20;78.20
28546;DHT22;15749;49.606;8.738;2022-08-19T13:52:22;30.20;79.30
28546;DHT22;15749;49.606;8.738;2022-08-19T13:55:11;30.20;77.60
28546;DHT22;15749;49.606;8.738;2022-08-19T13:58:10;30.20;77.20
28546;DHT22;15749;49.606;8.738;2022-08-19T14:00:59;30.20;76.10
28546;DHT22;15749;49.606;8.738;2022-08-19T14:03:47;30.20;78.10
28546;DHT22;15749;49.606;8.738;2022-08-19T14:06:35;30.20;76.50
28546;DHT22;15749;49.606;8.738;2022-08-19T14:09:23;30.20;76.80
28546;DHT22;15749;49.606;8.738;2022-08-19T14:12:10;30.20;74.70
28546;DHT22;15749;49.606;8.738;2022-08-19T14:15:00;30.20;76.70
28546;DHT22;15749;49.606;8.738;2022-08-19T14:17:48;30.20;75.90
28546;DHT22;15749;49.606;8.738;2022-08-19T14:20:36;30.20;76.50
28546;DHT22;15749;49.606;8.738;2022-08-19T14:23:24;30.20;77.20
28546;DHT22;15749;49.606;8.738;2022-08-19T14:26:14;30.20;75.80
28546;DHT22;15749;49.606;8.738;2022-08-19T14:29:04;30.30;76.20
28546;DHT22;15749;49.606;8.738;2022-08-19T14:31:53;30.30;75.50
28546;DHT22;15749;49.606;8.738;2022-08-19T14:34:42;30.30;74.90
28546;DHT22;15749;49.606;8.738;2022-08-19T14:37:32;30.30;75.30
28546;DHT22;15749;49.606;8.738;2022-08-19T14:40:31;30.30;75.50
28546;DHT22;15749;49.606;8.738;2022-08-19T14:43:19;30.30;75.50
28546;DHT22;15749;49.606;8.738;2022-08-19T14:46:08;30.30;75.40
28546;DHT22;15749;49.606;8.738;2022-08-19T14:49:03;30.30;75.40
28546;DHT22;15749;49.606;8.738;2022-08-19T14:51:57;30.30;73.80
28546;DHT22;15749;49.606;8.738;2022-08-19T14:54:45;30.30;74.00
28546;DHT22;15749;49.606;8.738;2022-08-19T14:57:41;30.30;74.50
28546;DHT22;15749;49.606;8.738;2022-08-19T15:00:31;30.40;73.30
28546;DHT22;15749;49.606;8.738;2022-08-19T15:03:21;30.30;72.30
28546;DHT22;15749;49.606;8.738;2022-08-19T15:06:11;30.40;73.10
28546;DHT22;15749;49.606;8.738;2022-08-19T15:08:59;30.40;70.90
28546;DHT22;15749;49.606;8.738;2022-08-19T15:11:49;30.40;73.10
28546;DHT22;15749;49.606;8.738;2022-08-19T15:14:40;30.40;73.30
28546;DHT22;15749;49.606;8.738;2022-08-19T15:17:33;30.40;71.30
28546;DHT22;15749;49.606;8.738;2022-08-19T15:20:31;30.40;71.90
28546;DHT22;15749;49.606;8.738;2022-08-19T15:23:20;30.40;70.60
28546;DHT22;15749;49.606;8.738;2022-08-19T15:26:08;30.40;71.00
28546;DHT22;15749;49.606;8.738;2022-08-19T15:29:01;30.40;74.10
28546;DHT22;15749;49.606;8.738;2022-08-19T15:31:50;30.40;72.40
28546;DHT22;15749;49.606;8.738;2022-08-19T15:34:42;30.40;72.50
28546;DHT22;15749;49.606;8.738;2022-08-19T15:37:30;30.40;71.60
28546;DHT22;15749;49.606;8.738;2022-08-19T15:40:25;30.40;71.40
28546;DHT22;15749;49.606;8.738;2022-08-19T15:43:14;30.40;71.90
28546;DHT22;15749;49.606;8.738;2022-08-19T15:46:02;30.40;73.10
28546;DHT22;15749;49.606;8.738;2022-08-19T15:48:51;30.30;72.20
28546;DHT22;15749;49.606;8.738;2022-08-19T15:51:46;30.30;72.10
28546;DHT22;15749;49.606;8.738;2022-08-19T15:54:36;30.30;72.90
28546;DHT22;15749;49.606;8.738;2022-08-19T15:57:26;30.30;71.20
28546;DHT22;15749;49.606;8.738;2022-08-19T16:00:31;30.30;71.00
28546;DHT22;15749;49.606;8.738;2022-08-19T16:03:38;30.30;71.00
28546;DHT22;15749;49.606;8.738;2022-08-19T16:06:46;30.30;72.30
28546;DHT22;15749;49.606;8.738;2022-08-19T16:09:35;30.30;71.40
28546;DHT22;15749;49.606;8.738;2022-08-19T16:12:23;30.30;70.90
28546;DHT22;15749;49.606;8.738;2022-08-19T16:15:16;30.20;70.30
28546;DHT22;15749;49.606;8.738;2022-08-19T16:18:06;30.20;70.10
28546;DHT22;15749;49.606;8.738;2022-08-19T16:20:53;30.20;70.40
28546;DHT22;15749;49.606;8.738;2022-08-19T16:23:42;30.20;69.00
28546;DHT22;15749;49.606;8.738;2022-08-19T16:26:31;30.20;71.50
28546;DHT22;15749;49.606;8.738;2022-08-19T16:29:20;30.20;72.00
28546;DHT22;15749;49.606;8.738;2022-08-19T16:32:25;30.10;71.50
28546;DHT22;15749;49.606;8.738;2022-08-19T16:35:13;30.10;69.60
28546;DHT22;15749;49.606;8.738;2022-08-19T16:38:01;30.10;71.90
28546;DHT22;15749;49.606;8.738;2022-08-19T16:40:50;30.10;72.50
28546;DHT22;15749;49.606;8.738;2022-08-19T16:43:40;30.10;70.80
28546;DHT22;15749;49.606;8.738;2022-08-19T16:46:28;30.10;72.80
28546;DHT22;15749;49.606;8.738;2022-08-19T16:49:16;30.10;72.20
28546;DHT22;15749;49.606;8.738;2022-08-19T16:52:24;30.00;72.90
28546;DHT22;15749;49.606;8.738;2022-08-19T16:55:13;30.00;72.10
28546;DHT22;15749;49.606;8.738;2022-08-19T16:58:01;30.00;72.80
28546;DHT22;15749;49.606;8.738;2022-08-19T17:00:51;30.00;72.80
28546;DHT22;15749;49.606;8.738;2022-08-19T17:03:39;29.90;72.70
28546;DHT22;15749;49.606;8.738;2022-08-19T17:06:29;29.90;72.80
28546;DHT22;15749;49.606;8.738;2022-08-19T17:09:17;29.90;73.00
28546;DHT22;15749;49.606;8.738;2022-08-19T17:12:11;29.90;73.30
28546;DHT22;15749;49.606;8.738;2022-08-19T17:15:02;29.90;72.90
28546;DHT22;15749;49.606;8.738;2022-08-19T17:17:53;29.90;73.20
28546;DHT22;15749;49.606;8.738;2022-08-19T17:20:45;29.80;74.10
28546;DHT22;15749;49.606;8.738;2022-08-19T17:23:35;29.80;73.90
28546;DHT22;15749;49.606;8.738;2022-08-19T17:26:29;29.80;73.50
28546;DHT22;15749;49.606;8.738;2022-08-19T17:29:17;29.80;73.20
28546;DHT22;15749;49.606;8.738;2022-08-19T17:32:05;29.80;73.50
28546;DHT22;15749;49.606;8.738;2022-08-19T17:34:53;29.80;72.90
28546;DHT22;15749;49.606;8.738;2022-08-19T17:37:41;29.70;73.30
28546;DHT22;15749;49.606;8.738;2022-08-19T17:40:31;29.70;72.90
28546;DHT22;15749;49.606;8.738;2022-08-19T17:43:19;29.70;72.70
28546;DHT22;15749;49.606;8.738;2022-08-19T17:46:18;29.60;73.70
28546;DHT22;15749;49.606;8.738;2022-08-19T17:49:06;29.60;73.20
28546;DHT22;15749;49.606;8.738;2022-08-19T17:51:54;29.60;72.90
28546;DHT22;15749;49.606;8.738;2022-08-19T17:54:42;29.60;73.50
28546;DHT22;15749;49.606;8.738;2022-08-19T17:57:31;29.60;72.80
28546;DHT22;15749;49.606;8.738;2022-08-19T18:00:20;29.50;71.80